Time;durP1;ratioP1;P1;durP2;ratioP2;P2;SDS_P1;SDS_P2;PMS_P1;PMS_P2;Temp;Humidity;BMP_temperature;BMP_pressure;BME280_temperature;BME280_humidity;BME280_pressure;Samples;Min_cycle;Max_cycle;Signal;HPM_P1;HPM_P2
2022/12/28 00:01:15;;;;;;;52.47;28.60;;;7.40;80.10;;;;;;4938200;29;20042;-18
2022/12/28 00:03:41;;;;;;;50.17;28.25;;;7.30;80.20;;;;;;4938478;29;20028;-16
2022/12/28 00:06:08;;;;;;;35.92;21.98;;;7.20;80.10;;;;;;4938616;29;20031;-14
2022/12/28 00:08:33;;;;;;;45.28;24.95;;;7.20;80.10;;;;;;4938310;29;20515;-16
2022/12/28 00:11:02;;;;;;;42.80;25.33;;;7.10;80.20;;;;;;4938277;29;20028;-15
2022/12/28 00:13:34;;;;;;;34.53;21.05;;;7.10;80.20;;;;;;4938232;29;20028;-16
2022/12/28 00:16:08;;;;;;;41.13;23.63;;;7.00;80.20;;;;;;4938406;29;20050;-12
2022/12/28 00:18:35;;;;;;;33.38;19.98;;;7.00;80.30;;;;;;4938264;29;20389;-15
2022/12/28 00:21:03;;;;;;;43.55;23.30;;;7.00;80.30;;;;;;4938323;29;20027;-17
2022/12/28 00:23:29;;;;;;;35.42;21.00;;;6.90;80.30;;;;;;4937952;29;20103;-18
2022/12/28 00:25:56;;;;;;;49.42;27.45;;;6.90;80.30;;;;;;4937806;29;20055;-16
2022/12/28 00:28:22;;;;;;;40.47;24.75;;;6.90;80.30;;;;;;4937724;29;20063;-17
2022/12/28 00:30:48;;;;;;;35.75;21.88;;;6.80;80.30;;;;;;4937968;29;20074;-18
2022/12/28 00:33:14;;;;;;;48.17;27.67;;;6.80;80.40;;;;;;4938367;29;20032;-18
2022/12/28 00:35:40;;;;;;;38.92;22.20;;;6.80;80.50;;;;;;4937836;29;20098;-17
2022/12/28 00:38:06;;;;;;;31.38;19.77;;;6.70;80.50;;;;;;4937711;29;20118;-17
2022/12/28 00:40:32;;;;;;;30.88;19.40;;;6.70;80.60;;;;;;4937638;29;20028;-17
2022/12/28 00:42:58;;;;;;;35.55;20.25;;;6.70;80.50;;;;;;4937531;29;20023;-18
2022/12/28 00:45:24;;;;;;;36.95;21.85;;;6.60;80.50;;;;;;4937305;29;20023;-16
2022/12/28 00:47:50;;;;;;;43.80;24.85;;;6.50;80.50;;;;;;4937785;29;20428;-18
2022/12/28 00:50:16;;;;;;;32.72;19.48;;;6.50;80.50;;;;;;4937614;29;20124;-15
2022/12/28 00:52:41;;;;;;;30.65;18.60;;;6.40;80.50;;;;;;4937548;29;20031;-16
2022/12/28 00:55:08;;;;;;;31.42;18.50;;;6.40;80.50;;;;;;4937480;29;20027;-15
2022/12/28 00:57:36;;;;;;;33.58;19.48;;;6.40;80.60;;;;;;4937303;29;20500;-17
2022/12/28 01:00:03;;;;;;;38.55;22.02;;;6.30;80.70;;;;;;4937211;29;20028;-18
2022/12/28 01:02:28;;;;;;;40.95;21.98;;;6.30;80.70;;;;;;4937709;29;20036;-16
2022/12/28 01:04:54;;;;;;;41.00;22.80;;;6.20;80.60;;;;;;4937347;29;20036;-17
2022/12/28 01:07:20;;;;;;;39.88;23.35;;;6.20;80.50;;;;;;4937238;29;20440;-17
2022/12/28 01:09:46;;;;;;;42.92;24.60;;;6.10;80.50;;;;;;4935902;29;20415;-17
2022/12/28 01:12:12;;;;;;;43.95;26.15;;;6.00;80.50;;;;;;4936992;29;20059;-16
2022/12/28 01:14:38;;;;;;;36.80;21.52;;;5.90;80.70;;;;;;4937173;29;20028;-16
2022/12/28 01:17:04;;;;;;;32.58;19.58;;;5.80;80.80;;;;;;4937030;29;20063;-17
2022/12/28 01:19:30;;;;;;;25.05;16.55;;;5.80;81.00;;;;;;4937290;29;20028;-17
2022/12/28 01:21:56;;;;;;;27.85;16.80;;;5.70;81.20;;;;;;4937423;29;20432;-17
2022/12/28 01:24:22;;;;;;;27.27;16.90;;;5.70;81.20;;;;;;4936668;29;20059;-16
2022/12/28 01:26:48;;;;;;;32.25;19.38;;;5.80;81.20;;;;;;4936862;29;20035;-16
2022/12/28 01:29:14;;;;;;;34.88;19.20;;;5.70;81.10;;;;;;4937043;29;20111;-18
2022/12/28 01:31:40;;;;;;;28.33;17.35;;;5.70;81.10;;;;;;4936722;29;20103;-17
2022/12/28 01:34:06;;;;;;;27.92;16.88;;;5.60;81.00;;;;;;4937486;29;20083;-16
2022/12/28 01:36:36;;;;;;;23.10;14.23;;;5.60;81.00;;;;;;4936774;29;20422;-17
2022/12/28 01:39:04;;;;;;;23.30;14.82;;;5.50;81.00;;;;;;4936360;29;20134;-18
2022/12/28 01:41:32;;;;;;;30.45;17.40;;;5.40;80.90;;;;;;4936845;29;20075;-17
2022/12/28 01:43:58;;;;;;;24.60;14.38;;;5.40;80.90;;;;;;4936533;29;20028;-18
2022/12/28 01:46:48;;;;;;;38.78;22.10;;;5.30;80.90;;;;;;4936421;29;20087;-17
2022/12/28 01:49:27;;;;;;;30.50;16.98;;;5.20;81.10;;;;;;4936432;29;20043;-16
2022/12/28 01:52:16;;;;;;;31.52;18.90;;;5.10;81.10;;;;;;4936611;29;20039;-15
2022/12/28 01:54:53;;;;;;;33.33;18.50;;;5.10;81.10;;;;;;4936293;29;20428;-17
2022/12/28 01:57:24;;;;;;;36.25;19.73;;;5.00;81.20;;;;;;4935591;29;20024;-15
2022/12/28 01:59:57;;;;;;;37.00;21.02;;;4.90;81.20;;;;;;4936160;29;20492;-14
2022/12/28 02:02:23;;;;;;;32.17;17.90;;;4.90;81.20;;;;;;4935101;29;20071;-13
2022/12/28 02:04:49;;;;;;;29.90;17.92;;;4.80;81.30;;;;;;4936229;29;20119;-15
2022/12/28 02:07:23;;;;;;;31.38;17.70;;;4.70;81.30;;;;;;4936416;29;20055;-12
2022/12/28 02:09:50;;;;;;;34.75;19.45;;;4.70;81.30;;;;;;4936080;29;20368;-13
2022/12/28 02:12:16;;;;;;;33.50;18.90;;;4.60;81.40;;;;;;4936234;29;20028;-18
2022/12/28 02:14:43;;;;;;;26.45;15.38;;;4.60;81.50;;;;;;4936478;29;20078;-15
2022/12/28 02:17:11;;;;;;;30.48;16.92;;;4.50;81.60;;;;;;4936065;29;20032;-13
2022/12/28 02:19:46;;;;;;;29.77;16.08;;;4.50;81.90;;;;;;4935970;29;20388;-15
2022/12/28 02:22:39;;;;;;;25.48;14.32;;;4.50;82.00;;;;;;4936218;29;20028;-15
2022/12/28 02:25:12;;;;;;;34.20;19.20;;;4.50;81.90;;;;;;4935746;29;20075;-16
2022/12/28 02:28:03;;;;;;;23.27;14.05;;;4.50;81.90;;;;;;4936228;29;20030;-16
2022/12/28 02:30:34;;;;;;;26.08;15.63;;;4.50;81.90;;;;;;4935722;29;20472;-12
2022/12/28 02:33:24;;;;;;;27.23;15.18;;;4.40;81.90;;;;;;4936043;29;20026;-13
2022/12/28 02:36:07;;;;;;;31.77;18.58;;;4.50;81.90;;;;;;4935967;29;20024;-14
2022/12/28 02:39:03;;;;;;;29.23;16.97;;;4.50;81.80;;;;;;4935905;29;20036;-15
2022/12/28 02:41:31;;;;;;;27.25;15.13;;;4.40;81.60;;;;;;4935440;29;20267;-16
2022/12/28 02:43:59;;;;;;;31.80;17.95;;;4.30;81.60;;;;;;4935930;29;20507;-16
2022/12/28 02:52:46;;;;;;;26.77;15.38;;;4.30;81.80;;;;;;4935740;29;20130;-14
2022/12/28 02:58:46;;;;;;;26.30;14.65;;;4.20;81.70;;;;;;4935609;29;20404;-17
2022/12/28 03:01:27;;;;;;;26.20;14.73;;;4.20;81.60;;;;;;4935256;29;20104;-17
2022/12/28 03:04:31;;;;;;;28.63;16.10;;;4.10;81.50;;;;;;4935606;29;20031;-18
2022/12/28 03:10:06;;;;;;;29.08;15.23;;;4.00;81.60;;;;;;4876767;29;20443;-17
2022/12/28 03:12:43;;;;;;;27.00;15.35;;;4.00;81.70;;;;;;4876591;29;20040;-18
2022/12/28 03:15:32;;;;;;;24.88;13.00;;;4.00;81.80;;;;;;4876599;29;20541;-16
2022/12/28 03:32:08;;;;;;;25.25;14.43;;;4.00;82.00;;;;;;4876605;29;20083;-17
2022/12/28 03:34:35;;;;;;;21.80;12.95;;;4.10;82.00;;;;;;4876380;29;20030;-17
2022/12/28 03:37:32;;;;;;;23.58;13.13;;;4.20;82.00;;;;;;4876248;29;20052;-17
2022/12/28 03:40:13;;;;;;;19.05;11.68;;;4.30;81.70;;;;;;4880905;29;20052;-17
2022/12/28 03:46:08;;;;;;;20.08;10.90;;;4.60;81.50;;;;;;4935254;29;20115;-16
2022/12/28 03:48:36;;;;;;;19.58;10.75;;;4.70;81.30;;;;;;4934845;29;20031;-17
2022/12/28 03:51:02;;;;;;;18.20;10.32;;;4.90;81.40;;;;;;4934647;29;20027;-16
2022/12/28 03:53:44;;;;;;;15.68;9.52;;;5.00;81.40;;;;;;4935051;29;20024;-17
2022/12/28 03:56:15;;;;;;;15.85;8.80;;;5.10;81.30;;;;;;4934731;29;20028;-17
2022/12/28 03:58:41;;;;;;;20.55;10.52;;;5.20;81.40;;;;;;4934915;29;20023;-17
2022/12/28 04:01:07;;;;;;;23.63;13.02;;;5.20;81.50;;;;;;4934877;29;20043;-17
2022/12/28 04:03:33;;;;;;;19.08;11.15;;;5.20;81.50;;;;;;4934754;29;20126;-17
2022/12/28 04:06:00;;;;;;;20.40;11.98;;;5.10;81.20;;;;;;4934668;29;20476;-17
2022/12/28 04:08:27;;;;;;;19.00;10.18;;;5.00;81.30;;;;;;4934785;29;20036;-17
2022/12/28 04:10:53;;;;;;;15.88;9.20;;;4.90;81.40;;;;;;4934554;29;20023;-17
2022/12/28 04:13:19;;;;;;;16.35;9.50;;;4.80;81.40;;;;;;4934931;29;20481;-16
2022/12/28 04:15:55;;;;;;;16.45;9.45;;;4.80;81.50;;;;;;4934470;29;20030;-17
2022/12/28 04:18:21;;;;;;;18.00;9.65;;;4.80;81.30;;;;;;4934660;29;20520;-17
2022/12/28 04:20:47;;;;;;;19.58;10.20;;;4.80;81.10;;;;;;4935968;29;20055;-17
2022/12/28 04:23:13;;;;;;;18.17;9.85;;;4.80;81.00;;;;;;4937777;29;20051;-17
2022/12/28 04:25:39;;;;;;;16.83;9.80;;;4.80;81.10;;;;;;4938114;29;20024;-17
2022/12/28 04:28:05;;;;;;;15.27;8.50;;;4.80;81.20;;;;;;4937926;29;20027;-18
2022/12/28 04:30:31;;;;;;;14.30;8.48;;;4.80;81.20;;;;;;4938012;29;20039;-18
2022/12/28 04:32:57;;;;;;;15.55;9.38;;;4.80;81.30;;;;;;4937674;29;20031;-16
2022/12/28 04:35:23;;;;;;;14.65;9.23;;;4.80;81.30;;;;;;4938454;29;20074;-17
2022/12/28 04:37:49;;;;;;;15.65;8.93;;;4.80;81.30;;;;;;4938054;29;20035;-17
2022/12/28 04:40:15;;;;;;;16.42;9.13;;;4.80;81.30;;;;;;4936428;29;20491;-17
2022/12/28 04:42:41;;;;;;;14.60;8.45;;;4.80;81.30;;;;;;4937605;29;20039;-17
2022/12/28 04:45:07;;;;;;;13.98;7.45;;;4.80;81.50;;;;;;4936126;29;20032;-17
2022/12/28 04:47:33;;;;;;;12.40;7.28;;;4.90;81.40;;;;;;4937660;29;20496;-17
2022/12/28 04:49:59;;;;;;;10.93;6.60;;;4.80;81.40;;;;;;4937878;29;20047;-17
2022/12/28 04:52:25;;;;;;;11.88;6.68;;;4.90;81.10;;;;;;4937582;29;20114;-17
2022/12/28 04:54:51;;;;;;;12.30;7.03;;;4.90;80.90;;;;;;4937195;29;20036;-18
2022/12/28 04:57:17;;;;;;;12.13;6.65;;;4.90;81.00;;;;;;4936124;29;20083;-17
2022/12/28 04:59:43;;;;;;;13.25;7.35;;;4.80;80.90;;;;;;4937534;29;20036;-17
2022/12/28 05:02:09;;;;;;;12.35;6.55;;;4.80;80.80;;;;;;4937674;29;20376;-16
2022/12/28 05:04:35;;;;;;;11.15;5.85;;;4.70;80.80;;;;;;4937435;29;20070;-16
2022/12/28 05:07:01;;;;;;;13.32;7.32;;;4.70;80.80;;;;;;4937116;29;20556;-17
2022/12/28 05:09:27;;;;;;;14.95;8.10;;;4.70;80.90;;;;;;4937933;29;20035;-17
2022/12/28 05:11:53;;;;;;;13.80;5.72;;;4.60;80.90;;;;;;4937785;29;20082;-15
2022/12/28 05:14:19;;;;;;;15.02;8.30;;;4.60;80.90;;;;;;4937099;29;20114;-16
2022/12/28 05:16:48;;;;;;;17.42;9.48;;;4.60;80.90;;;;;;4937178;29;20108;-18
2022/12/28 05:19:14;;;;;;;14.50;8.13;;;4.60;81.10;;;;;;4936898;29;20028;-18
2022/12/28 05:21:40;;;;;;;16.10;9.00;;;4.60;81.20;;;;;;4937567;29;20028;-16
2022/12/28 05:24:07;;;;;;;18.75;10.73;;;4.60;81.10;;;;;;4936908;29;20107;-19
2022/12/28 05:26:34;;;;;;;16.15;10.25;;;4.60;81.10;;;;;;4937142;29;20019;-17
2022/12/28 05:29:00;;;;;;;16.13;8.52;;;4.60;81.10;;;;;;4936591;29;20083;-16
2022/12/28 05:31:27;;;;;;;16.55;9.63;;;4.70;81.20;;;;;;4936862;29;20532;-17
2022/12/28 05:33:53;;;;;;;15.63;9.23;;;4.70;81.10;;;;;;4937206;29;20055;-16
2022/12/28 05:36:23;;;;;;;18.27;9.30;;;4.80;81.10;;;;;;4935423;29;20094;-14
2022/12/28 05:38:49;;;;;;;15.43;9.20;;;4.90;81.10;;;;;;4936538;29;20034;-15
2022/12/28 05:41:18;;;;;;;16.10;9.07;;;5.00;81.20;;;;;;4937031;29;20458;-12
2022/12/28 05:43:44;;;;;;;16.48;9.30;;;5.00;81.00;;;;;;4937041;29;20047;-17
2022/12/28 05:46:15;;;;;;;13.27;8.10;;;5.10;80.80;;;;;;4936469;29;20028;-15
2022/12/28 05:48:42;;;;;;;14.48;8.88;;;5.20;80.90;;;;;;4936559;29;20040;-16
2022/12/28 05:51:14;;;;;;;15.40;8.93;;;5.20;80.90;;;;;;4934959;29;20031;-16
2022/12/28 05:53:40;;;;;;;16.92;8.52;;;5.30;80.90;;;;;;4936533;29;20111;-17
2022/12/28 05:56:15;;;;;;;15.25;9.20;;;5.30;80.90;;;;;;4936236;29;20043;-17
2022/12/28 05:58:42;;;;;;;18.80;9.60;;;5.30;80.70;;;;;;4936329;29;20036;-18
2022/12/28 06:01:13;;;;;;;14.88;8.57;;;5.40;80.60;;;;;;4936512;29;20074;-17
2022/12/28 06:03:40;;;;;;;15.23;8.60;;;5.40;80.50;;;;;;4936186;29;20039;-17
2022/12/28 06:06:08;;;;;;;16.48;9.10;;;5.50;80.50;;;;;;4936453;29;20043;-18
2022/12/28 06:08:35;;;;;;;15.82;9.02;;;5.50;80.60;;;;;;4936150;29;20038;-18
2022/12/28 06:11:04;;;;;;;16.92;8.73;;;5.60;80.60;;;;;;4934606;29;20079;-18
2022/12/28 06:13:31;;;;;;;13.57;8.55;;;5.60;80.50;;;;;;4936398;29;20032;-18
2022/12/28 06:15:57;;;;;;;16.77;9.32;;;5.60;80.40;;;;;;4934895;29;20400;-17
2022/12/28 06:18:23;;;;;;;16.33;8.70;;;5.60;80.50;;;;;;4935884;29;20083;-18
2022/12/28 06:20:50;;;;;;;16.30;9.15;;;5.60;80.60;;;;;;4935705;29;20038;-18
2022/12/28 06:23:15;;;;;;;16.45;8.70;;;5.70;80.50;;;;;;4935659;29;20507;-16
2022/12/28 06:25:42;;;;;;;16.05;8.85;;;5.70;80.50;;;;;;4935970;29;20084;-17
2022/12/28 06:28:08;;;;;;;16.65;9.10;;;5.70;80.50;;;;;;4934481;29;20027;-16
2022/12/28 06:30:33;;;;;;;20.48;9.88;;;5.70;80.50;;;;;;4935754;29;20028;-15
2022/12/28 06:33:00;;;;;;;19.17;10.35;;;5.70;80.50;;;;;;4935534;29;20083;-17
2022/12/28 06:35:26;;;;;;;20.02;9.80;;;5.70;80.40;;;;;;4934540;29;20447;-17
2022/12/28 06:37:52;;;;;;;16.77;9.43;;;5.80;80.50;;;;;;4935631;29;20095;-18
2022/12/28 06:40:18;;;;;;;17.27;9.75;;;5.90;80.60;;;;;;4935569;29;20035;-15
2022/12/28 06:42:44;;;;;;;14.10;7.90;;;5.90;80.40;;;;;;4934900;29;20035;-17
2022/12/28 06:45:10;;;;;;;14.15;8.88;;;5.90;80.40;;;;;;4935390;29;20035;-17
2022/12/28 06:47:36;;;;;;;15.32;8.75;;;6.00;80.30;;;;;;4935730;29;20110;-17
2022/12/28 06:50:03;;;;;;;19.23;9.32;;;6.00;80.30;;;;;;4918480;29;20118;-18
2022/12/28 06:52:29;;;;;;;15.35;9.82;;;6.00;80.00;;;;;;4935390;29;20488;-17
2022/12/28 06:54:55;;;;;;;14.20;9.13;;;6.00;80.00;;;;;;4934296;29;20028;-16
2022/12/28 06:57:20;;;;;;;16.92;9.80;;;6.00;79.90;;;;;;4935366;29;20392;-16
2022/12/28 06:59:46;;;;;;;16.38;9.57;;;6.00;79.90;;;;;;4935211;29;20039;-16
2022/12/28 07:02:12;;;;;;;14.48;8.05;;;6.00;79.80;;;;;;4935257;29;20036;-18
2022/12/28 07:04:38;;;;;;;17.20;9.70;;;6.00;79.80;;;;;;4935298;29;20024;-18
2022/12/28 07:07:04;;;;;;;14.88;8.98;;;6.00;79.90;;;;;;4935220;29;20062;-17
2022/12/28 07:09:30;;;;;;;17.75;9.27;;;6.00;79.80;;;;;;4935682;29;20115;-19
2022/12/28 07:11:56;;;;;;;15.30;8.77;;;5.90;79.80;;;;;;4933947;29;20103;-16
2022/12/28 07:14:22;;;;;;;14.90;7.75;;;5.90;79.80;;;;;;4935256;29;20118;-18
2022/12/28 07:16:48;;;;;;;17.67;8.98;;;5.90;79.80;;;;;;4934974;29;20198;-17
2022/12/28 07:19:14;;;;;;;15.70;9.73;;;5.90;79.90;;;;;;4935331;29;20484;-16
2022/12/28 07:21:40;;;;;;;14.75;9.60;;;5.90;79.80;;;;;;4935021;29;20079;-16
2022/12/28 07:24:07;;;;;;;13.95;8.85;;;5.90;79.80;;;;;;4935073;29;20051;-16
2022/12/28 07:26:35;;;;;;;16.77;8.95;;;5.90;79.90;;;;;;4935065;29;20035;-16
2022/12/28 07:29:04;;;;;;;33.20;18.40;;;5.90;79.90;;;;;;4934938;29;20016;-15
2022/12/28 07:31:33;;;;;;;16.98;10.60;;;5.90;79.90;;;;;;4935426;29;20055;-18
2022/12/28 07:34:00;;;;;;;17.17;9.30;;;5.90;79.90;;;;;;4934955;29;20554;-12
2022/12/28 07:36:28;;;;;;;17.05;10.90;;;6.00;79.80;;;;;;4934965;29;20032;-17
2022/12/28 07:38:55;;;;;;;15.15;9.52;;;6.00;79.80;;;;;;4934662;29;20130;-18
2022/12/28 07:41:24;;;;;;;17.48;10.82;;;6.10;79.70;;;;;;4935380;29;20028;-17
2022/12/28 07:43:51;;;;;;;20.50;11.38;;;6.10;79.70;;;;;;4935369;29;20031;-17
2022/12/28 07:46:19;;;;;;;14.43;9.13;;;6.10;79.70;;;;;;4935259;29;20555;-14
2022/12/28 07:48:46;;;;;;;16.10;8.63;;;6.20;79.60;;;;;;4934898;29;20079;-16
2022/12/28 07:51:20;;;;;;;18.05;8.52;;;6.20;79.50;;;;;;4934896;29;20055;-15
2022/12/28 07:53:47;;;;;;;18.38;9.63;;;6.40;79.30;;;;;;4934838;29;20027;-15
2022/12/28 07:56:14;;;;;;;12.57;7.50;;;6.40;79.30;;;;;;4938483;29;20110;-18
2022/12/28 07:58:41;;;;;;;12.98;7.05;;;6.50;79.20;;;;;;4937227;29;20036;-17
2022/12/28 08:01:10;;;;;;;14.13;7.70;;;6.60;79.20;;;;;;4938256;29;20118;-17
2022/12/28 08:03:37;;;;;;;13.82;7.82;;;6.60;79.10;;;;;;4938709;29;20067;-17
2022/12/28 08:06:09;;;;;;;22.08;10.93;;;6.70;79.10;;;;;;4938507;29;20052;-16
2022/12/28 08:08:41;;;;;;;22.15;10.80;;;6.80;79.00;;;;;;4938295;29;20039;-17
2022/12/28 08:11:09;;;;;;;24.85;12.25;;;6.90;78.90;;;;;;4938288;29;20031;-18
2022/12/28 08:13:42;;;;;;;23.23;12.65;;;7.00;78.90;;;;;;4938031;29;20036;-15
2022/12/28 08:16:10;;;;;;;18.40;11.40;;;7.20;78.70;;;;;;4938129;29;20030;-14
2022/12/28 08:18:37;;;;;;;16.90;10.60;;;7.30;78.50;;;;;;4938062;29;20042;-18
2022/12/28 08:21:09;;;;;;;19.77;12.10;;;7.50;78.40;;;;;;4938158;29;20036;-18
2022/12/28 08:23:35;;;;;;;17.20;10.90;;;7.60;78.20;;;;;;4938233;29;20121;-15
2022/12/28 08:26:19;;;;;;;19.17;11.23;;;7.90;77.90;;;;;;4937871;29;20425;-16
2022/12/28 08:28:47;;;;;;;16.38;10.50;;;8.00;77.60;;;;;;4938090;29;20083;-17
2022/12/28 08:31:16;;;;;;;16.45;9.93;;;8.10;77.40;;;;;;4938173;29;20028;-17
2022/12/28 08:33:42;;;;;;;16.40;9.57;;;8.30;77.20;;;;;;4937794;29;20043;-17
2022/12/28 08:36:09;;;;;;;15.43;10.13;;;8.40;77.10;;;;;;4938011;29;20103;-15
2022/12/28 08:38:37;;;;;;;23.27;12.23;;;8.40;76.80;;;;;;4937741;29;20024;-17
2022/12/28 08:41:05;;;;;;;23.48;13.00;;;8.50;76.70;;;;;;4938264;29;20040;-15
2022/12/28 08:43:33;;;;;;;26.40;14.10;;;8.50;76.50;;;;;;4937687;29;20441;-16
2022/12/28 08:46:00;;;;;;;22.95;14.15;;;8.60;76.50;;;;;;4937865;29;20028;-16
2022/12/28 08:48:27;;;;;;;25.17;16.30;;;8.60;76.40;;;;;;4937589;29;20511;-16
2022/12/28 08:50:53;;;;;;;27.05;16.50;;;8.60;76.40;;;;;;4937418;29;20031;-18
2022/12/28 08:53:20;;;;;;;25.13;14.25;;;8.60;76.40;;;;;;4937431;29;20038;-20
2022/12/28 08:55:47;;;;;;;55.22;31.15;;;8.70;76.40;;;;;;4937676;29;20034;-18
2022/12/28 08:58:13;;;;;;;29.80;16.85;;;8.80;76.40;;;;;;4936016;29;20440;-16
2022/12/28 09:00:39;;;;;;;25.52;13.82;;;8.80;76.30;;;;;;4937411;29;20083;-18
2022/12/28 09:03:05;;;;;;;26.30;15.00;;;8.90;76.00;;;;;;4937204;29;20036;-17
2022/12/28 09:05:31;;;;;;;28.75;15.55;;;8.90;76.20;;;;;;4937340;29;20079;-17
2022/12/28 09:07:57;;;;;;;24.45;15.05;;;9.00;76.10;;;;;;4936903;29;20337;-15
2022/12/28 09:10:23;;;;;;;34.63;19.80;;;9.20;76.00;;;;;;4937706;29;20027;-17
2022/12/28 09:12:50;;;;;;;26.15;16.40;;;9.30;76.00;;;;;;4936918;29;20555;-17
2022/12/28 09:15:16;;;;;;;23.92;14.73;;;9.40;75.80;;;;;;4937030;29;20547;-19
2022/12/28 09:17:42;;;;;;;23.02;13.38;;;9.40;75.70;;;;;;4937077;29;20180;-17
2022/12/28 09:20:08;;;;;;;23.25;12.65;;;9.50;75.70;;;;;;4937333;29;20030;-17
2022/12/28 09:22:34;;;;;;;18.58;11.77;;;9.60;75.60;;;;;;4936897;29;20036;-16
2022/12/28 09:25:00;;;;;;;27.85;16.83;;;9.70;75.50;;;;;;4935602;29;20039;-17
2022/12/28 09:27:26;;;;;;;20.77;15.32;;;9.90;75.30;;;;;;4937145;29;20043;-15
2022/12/28 09:29:52;;;;;;;16.30;11.15;;;10.00;74.90;;;;;;4937171;29;20412;-18
2022/12/28 09:32:18;;;;;;;17.83;9.63;;;10.20;74.20;;;;;;4937036;29;20077;-18
2022/12/28 09:34:45;;;;;;;13.30;8.30;;;10.40;74.00;;;;;;4937021;29;20055;-19
2022/12/28 09:37:11;;;;;;;11.68;7.47;;;10.70;73.10;;;;;;4937073;29;20044;-16
2022/12/28 09:39:37;;;;;;;12.50;7.13;;;10.90;72.90;;;;;;4936581;29;20399;-16
2022/12/28 09:42:14;;;;;;;12.65;7.20;;;11.10;70.70;;;;;;4936660;29;20039;-18
2022/12/28 09:45:02;;;;;;;12.43;6.88;;;11.30;70.30;;;;;;4936540;29;20063;-17
2022/12/28 09:47:44;;;;;;;12.05;6.85;;;11.50;70.00;;;;;;4936897;29;20024;-18
2022/12/28 09:50:17;;;;;;;13.50;7.78;;;11.60;67.60;;;;;;4936435;29;20476;-17
2022/12/28 09:53:18;;;;;;;11.60;7.60;;;11.90;68.60;;;;;;4936612;29;20024;-17
2022/12/28 09:55:56;;;;;;;12.45;7.63;;;12.00;67.60;;;;;;4936631;29;20380;-15
2022/12/28 09:58:22;;;;;;;13.68;8.27;;;12.30;66.00;;;;;;4936141;29;20075;-16
2022/12/28 10:00:55;;;;;;;12.88;8.23;;;12.40;67.30;;;;;;4936115;29;20115;-17
2022/12/28 10:03:25;;;;;;;13.07;7.32;;;12.50;66.50;;;;;;4936224;29;20032;-15
2022/12/28 10:05:53;;;;;;;13.60;7.95;;;12.50;65.80;;;;;;4936485;29;20034;-15
2022/12/28 10:08:22;;;;;;;15.38;7.18;;;12.60;65.90;;;;;;4936162;29;20031;-16
2022/12/28 10:10:50;;;;;;;10.40;6.30;;;12.90;66.20;;;;;;4935845;29;20554;-17
2022/12/28 10:13:23;;;;;;;11.02;6.60;;;13.10;66.00;;;;;;4934715;29;20544;-16
2022/12/28 10:15:50;;;;;;;8.80;5.80;;;13.30;62.60;;;;;;4936152;29;20078;-15
2022/12/28 10:18:23;;;;;;;9.35;5.93;;;13.60;64.00;;;;;;4935049;29;20040;-18
2022/12/28 10:20:49;;;;;;;12.40;6.78;;;13.60;59.30;;;;;;4935774;29;20054;-15
2022/12/28 10:23:23;;;;;;;10.65;6.03;;;13.70;58.10;;;;;;4935625;29;20535;-17
2022/12/28 10:25:52;;;;;;;11.52;6.97;;;13.70;60.00;;;;;;4935870;29;20032;-17
2022/12/28 10:28:21;;;;;;;18.38;9.45;;;13.90;61.00;;;;;;4935795;29;20030;-18
2022/12/28 10:31:03;;;;;;;12.15;6.65;;;14.10;60.60;;;;;;4935595;29;20038;-16
2022/12/28 10:33:29;;;;;;;9.25;6.13;;;14.40;57.00;;;;;;4936249;29;20032;-15
2022/12/28 10:35:56;;;;;;;12.60;7.20;;;14.60;60.90;;;;;;4935978;29;20090;-17
2022/12/28 10:38:30;;;;;;;9.80;5.97;;;14.80;58.70;;;;;;4935866;29;20038;-12
2022/12/28 10:41:14;;;;;;;11.40;6.50;;;14.90;57.10;;;;;;4935694;29;20027;-15
2022/12/28 10:43:44;;;;;;;9.63;6.35;;;15.00;57.40;;;;;;4935921;29;20039;-15
2022/12/28 10:46:22;;;;;;;9.13;5.60;;;15.10;58.00;;;;;;4935758;29;20102;-16
2022/12/28 10:48:59;;;;;;;8.55;5.45;;;15.10;58.50;;;;;;4934097;29;20031;-15
2022/12/28 10:51:26;;;;;;;10.98;7.75;;;15.30;59.10;;;;;;4935500;29;20024;-15
2022/12/28 10:53:55;;;;;;;11.57;6.80;;;15.40;58.60;;;;;;4935741;29;20492;-15
2022/12/28 10:56:25;;;;;;;8.75;5.85;;;15.40;57.30;;;;;;4935662;29;20051;-17
2022/12/28 10:59:26;;;;;;;9.70;5.85;;;15.30;57.30;;;;;;4935190;29;20023;-15
2022/12/28 11:01:55;;;;;;;10.38;6.28;;;15.30;58.10;;;;;;4934290;29;20404;-15
2022/12/28 11:04:24;;;;;;;9.05;6.20;;;15.60;56.50;;;;;;4935520;29;20061;-14
2022/12/28 11:07:01;;;;;;;8.25;5.78;;;15.80;55.00;;;;;;4935108;29;20040;-18
2022/12/28 11:09:32;;;;;;;9.55;6.45;;;15.90;55.60;;;;;;4935250;29;20040;-16
2022/12/28 11:12:16;;;;;;;10.65;6.40;;;16.00;55.60;;;;;;4935076;29;20055;-15
2022/12/28 11:14:42;;;;;;;;;;;16.10;50.80;;;;;;4935740;29;20373;-15
2022/12/28 11:17:26;;;;;;;7.32;4.43;;;16.20;48.80;;;;;;4934970;29;20004;-15
2022/12/28 11:20:06;;;;;;;7.00;4.10;;;16.40;52.40;;;;;;4935428;29;20059;-17
2022/12/28 11:22:33;;;;;;;5.25;3.50;;;16.60;52.40;;;;;;4935578;29;20139;-16
2022/12/28 11:25:00;;;;;;;6.97;3.50;;;16.90;51.50;;;;;;4935074;29;20043;-16
2022/12/28 11:27:27;;;;;;;7.50;3.10;;;16.90;50.70;;;;;;4935472;29;20039;-15
2022/12/28 11:29:54;;;;;;;5.47;3.42;;;17.00;51.10;;;;;;4937598;29;20058;-16
2022/12/28 11:32:46;;;;;;;4.43;3.17;;;17.30;50.60;;;;;;4939293;29;20039;-15
2022/12/28 11:35:22;;;;;;;5.20;3.30;;;17.40;48.60;;;;;;4938887;29;20035;-17
2022/12/28 11:37:49;;;;;;;4.85;2.85;;;17.40;47.80;;;;;;4939195;29;20039;-16
2022/12/28 11:40:43;;;;;;;6.85;3.30;;;17.40;48.20;;;;;;4938814;29;20035;-16
2022/12/28 11:43:27;;;;;;;4.88;2.88;;;17.50;48.20;;;;;;4938856;29;20032;-17
2022/12/28 11:46:02;;;;;;;7.22;3.22;;;17.60;48.30;;;;;;4939254;29;20044;-16
2022/12/28 11:48:41;;;;;;;8.48;3.80;;;17.80;49.50;;;;;;4938758;29;20027;-18
2022/12/28 11:51:17;;;;;;;3.72;2.40;;;17.90;48.70;;;;;;4937201;29;20040;-16
2022/12/28 11:53:43;;;;;;;3.25;2.30;;;18.10;49.10;;;;;;4939101;29;20095;-16
2022/12/28 11:56:10;;;;;;;3.70;2.20;;;18.40;48.20;;;;;;4938508;29;20036;-14
2022/12/28 11:58:38;;;;;;;3.97;2.60;;;18.60;47.90;;;;;;4938615;29;20466;-13
2022/12/28 12:01:07;;;;;;;4.40;2.70;;;18.90;47.70;;;;;;4938608;29;20495;-17
2022/12/28 12:04:05;;;;;;;4.43;2.60;;;18.90;47.10;;;;;;4938438;29;20027;-17
2022/12/28 12:06:43;;;;;;;4.20;2.50;;;18.90;45.40;;;;;;4879734;29;20037;-17
2022/12/28 12:09:20;;;;;;;3.80;2.30;;;18.80;45.90;;;;;;4879606;29;20025;-15
2022/12/28 12:11:57;;;;;;;3.38;2.28;;;18.60;45.20;;;;;;4879669;29;20462;-14
2022/12/28 12:15:00;;;;;;;4.18;2.53;;;18.60;45.80;;;;;;4879910;29;20056;-15
2022/12/28 12:17:42;;;;;;;2.80;2.10;;;18.70;45.70;;;;;;4877305;29;20029;-12
2022/12/28 12:20:39;;;;;;;3.25;2.38;;;18.70;46.20;;;;;;4879420;29;20044;-15
2022/12/28 12:23:08;;;;;;;4.15;2.75;;;18.80;46.40;;;;;;4879150;29;20109;-15
2022/12/28 12:25:41;;;;;;;5.30;3.65;;;18.80;44.50;;;;;;4879454;29;20029;-15
2022/12/28 12:29:01;;;;;;;4.80;3.53;;;18.60;41.00;;;;;;4879473;29;20037;-15
2022/12/28 12:31:41;;;;;;;5.18;3.03;;;18.50;45.30;;;;;;4824447;29;20045;-15
2022/12/28 12:34:37;;;;;;;5.10;3.03;;;18.40;44.10;;;;;;4824017;29;20095;-15
2022/12/28 12:37:34;;;;;;;5.32;3.20;;;18.20;43.60;;;;;;4820009;29;20134;-16
2022/12/28 12:40:13;;;;;;;4.05;2.70;;;18.20;44.30;;;;;;4823722;29;20068;-15
2022/12/28 12:42:54;;;;;;;4.03;2.92;;;18.30;45.70;;;;;;4863145;29;20052;-14
2022/12/28 12:45:48;;;;;;;6.05;3.35;;;18.10;42.00;;;;;;4879161;29;20036;-15
2022/12/28 12:48:19;;;;;;;8.07;3.55;;;17.70;46.20;;;;;;4879120;29;20466;-15
2022/12/28 12:50:53;;;;;;;5.07;3.05;;;17.50;46.70;;;;;;4878940;29;20041;-13
2022/12/28 12:53:49;;;;;;;5.90;3.60;;;17.40;47.40;;;;;;4879095;29;20044;-15
2022/12/28 12:56:38;;;;;;;5.65;3.20;;;17.30;46.80;;;;;;4879282;29;20482;-13
2022/12/28 12:59:40;;;;;;;3.80;2.90;;;17.40;46.60;;;;;;4878735;29;20177;-15
2022/12/28 13:02:31;;;;;;;4.25;2.63;;;17.60;46.40;;;;;;4878942;29;20043;-17
2022/12/28 13:05:02;;;;;;;4.20;2.88;;;17.90;47.40;;;;;;4896360;29;20042;-15
2022/12/28 13:07:29;;;;;;;4.80;2.88;;;18.30;46.00;;;;;;4937329;29;20042;-18
2022/12/28 13:09:59;;;;;;;4.15;3.08;;;18.70;44.10;;;;;;4937561;29;20023;-15
2022/12/28 13:12:25;;;;;;;4.10;3.05;;;19.00;44.00;;;;;;4937472;29;20059;-15
2022/12/28 13:15:02;;;;;;;5.60;3.20;;;19.20;43.60;;;;;;4937025;29;20031;-17
2022/12/28 13:17:29;;;;;;;4.40;3.42;;;19.30;43.40;;;;;;4937190;29;20510;-18
2022/12/28 13:20:30;;;;;;;4.40;3.00;;;19.30;44.00;;;;;;4937027;29;20071;-15
2022/12/28 13:22:56;;;;;;;5.97;3.53;;;19.30;43.70;;;;;;4878554;29;20185;-15
2022/12/28 13:25:28;;;;;;;3.92;2.78;;;19.20;44.10;;;;;;4878632;29;20530;-16
2022/12/28 13:27:56;;;;;;;5.05;3.15;;;18.80;44.40;;;;;;4878327;29;20033;-16
2022/12/28 13:30:24;;;;;;;6.03;3.40;;;18.60;44.30;;;;;;4878482;29;20529;-15
2022/12/28 13:32:56;;;;;;;6.53;4.40;;;18.40;44.70;;;;;;4877997;29;20033;-15